createdAt,value
2019-03-02T00:00:22.636Z,70.32
2019-03-02T00:02:56.785Z,70.12
2019-03-02T00:05:25.801Z,69.96
2019-03-02T00:07:58.821Z,69.73
2019-03-02T00:10:28.987Z,69.74
2019-03-02T00:13:03.877Z,69.85
2019-03-02T00:15:35.845Z,69.72
2019-03-02T00:18:05.864Z,69.62
2019-03-02T00:20:36.148Z,69.57
2019-03-02T00:23:06.489Z,69.68
2019-03-02T00:25:36.622Z,69.55
2019-03-02T00:28:06.690Z,69.49
2019-03-02T00:30:36.623Z,69.48
2019-03-02T00:33:06.744Z,69.70
2019-03-02T00:35:39.793Z,69.66
2019-03-02T00:38:09.101Z,69.94
2019-03-02T00:40:40.758Z,70.14
2019-03-02T00:43:12.178Z,70.13
2019-03-02T00:45:45.959Z,70.22
2019-03-02T00:48:14.348Z,70.00
2019-03-02T00:50:44.237Z,69.93
2019-03-02T00:53:18.712Z,69.93
2019-03-02T00:55:48.576Z,70.10
2019-03-02T00:58:18.451Z,70.09
2019-03-02T01:00:49.942Z,70.09
2019-03-02T01:03:20.124Z,69.86
2019-03-02T01:05:50.124Z,69.66
2019-03-02T01:08:20.506Z,69.55
2019-03-02T01:10:51.300Z,69.78
2019-03-02T01:13:23.109Z,69.81
2019-03-02T01:15:53.519Z,69.83
2019-03-02T01:18:23.499Z,69.89
2019-03-02T01:20:53.506Z,69.92
2019-03-02T01:23:23.849Z,69.99
2019-03-02T01:25:55.210Z,70.10
2019-03-02T01:28:25.569Z,70.13
2019-03-02T01:30:56.037Z,70.15
2019-03-02T01:33:28.632Z,70.08
2019-03-02T01:35:58.171Z,70.08
2019-03-02T01:38:28.267Z,70.04
2019-03-02T01:41:02.392Z,70.18
2019-03-02T01:43:32.278Z,70.53
2019-03-02T01:46:04.605Z,70.78
2019-03-02T01:48:34.700Z,70.58
2019-03-02T01:51:04.688Z,70.42
2019-03-02T01:53:35.613Z,70.41
2019-03-02T01:56:06.077Z,70.32
2019-03-02T01:58:37.234Z,70.61
2019-03-02T02:01:07.506Z,70.68
2019-03-02T02:03:38.618Z,70.57
2019-03-02T02:06:09.187Z,70.57
2019-03-02T02:08:39.079Z,70.50
2019-03-02T02:11:09.620Z,70.51
2019-03-02T02:13:42.893Z,70.66
2019-03-02T02:16:12.677Z,70.72
2019-03-02T02:18:42.915Z,71.29
2019-03-02T02:21:13.025Z,71.43
2019-03-02T02:23:45.834Z,71.56
2019-03-02T02:26:15.088Z,71.46
2019-03-02T02:28:44.971Z,71.28
2019-03-02T02:31:17.606Z,71.33
2019-03-02T02:33:47.553Z,71.38
2019-03-02T02:36:20.277Z,71.60
2019-03-02T02:38:54.514Z,71.73
2019-03-02T02:41:23.178Z,71.90
2019-03-02T02:43:54.300Z,72.15
2019-03-02T02:46:27.527Z,71.96
2019-03-02T02:48:57.162Z,71.99
2019-03-02T02:51:27.130Z,72.46
2019-03-02T02:53:57.105Z,72.32
2019-03-02T02:56:28.122Z,72.38
2019-03-02T02:59:01.683Z,72.37
2019-03-02T03:01:33.602Z,72.48
2019-03-02T03:04:03.216Z,72.52
2019-03-02T03:06:34.546Z,72.62
2019-03-02T03:09:09.807Z,72.79
2019-03-02T03:11:43.600Z,72.77
2019-03-02T03:14:14.916Z,72.81
2019-03-02T03:16:42.825Z,72.65
2019-03-02T03:19:12.736Z,72.57
2019-03-02T03:21:42.601Z,72.36
2019-03-02T03:24:12.842Z,72.07
2019-03-02T03:26:42.743Z,71.97
2019-03-02T03:29:12.705Z,71.85
2019-03-02T03:31:42.580Z,71.63
2019-03-02T03:34:12.631Z,71.51
2019-03-02T03:36:42.873Z,71.44
2019-03-02T03:39:13.041Z,71.08
2019-03-02T03:41:44.741Z,70.87
2019-03-02T03:44:17.592Z,70.51
2019-03-02T03:46:47.073Z,70.66
2019-03-02T03:49:17.066Z,70.55
2019-03-02T03:51:47.105Z,70.58
2019-03-02T03:54:17.314Z,70.76
2019-03-02T03:56:47.131Z,70.77
2019-03-02T03:59:19.064Z,71.06
2019-03-02T04:01:52.095Z,71.21
2019-03-02T04:04:24.786Z,71.16
2019-03-02T04:06:52.128Z,71.37
2019-03-02T04:09:22.871Z,71.19
2019-03-02T04:11:53.034Z,71.13
2019-03-02T04:14:24.672Z,70.76
2019-03-02T04:16:55.657Z,70.66
2019-03-02T04:19:33.972Z,70.37
2019-03-02T04:22:06.429Z,70.34
2019-03-02T04:24:39.844Z,70.59
2019-03-02T04:27:11.055Z,70.43
2019-03-02T04:29:48.871Z,70.33
2019-03-02T04:32:14.395Z,70.39
2019-03-02T04:34:44.398Z,70.40
2019-03-02T04:37:14.279Z,70.21
2019-03-02T04:39:46.460Z,70.17
2019-03-02T04:42:16.596Z,70.35
2019-03-02T04:44:46.704Z,70.54
2019-03-02T04:47:17.312Z,70.58
2019-03-02T04:49:51.080Z,71.01
2019-03-02T04:52:18.992Z,71.34
2019-03-02T04:54:48.971Z,71.29
2019-03-02T04:57:21.710Z,71.26
2019-03-02T04:59:53.683Z,71.18
2019-03-02T05:02:23.494Z,71.41
2019-03-02T05:04:53.963Z,71.55
2019-03-02T05:07:26.741Z,71.41
2019-03-02T05:09:55.818Z,71.36
2019-03-02T05:12:27.122Z,71.37
2019-03-02T05:14:57.125Z,71.60
2019-03-02T05:17:27.019Z,71.82
2019-03-02T05:19:56.938Z,71.96
2019-03-02T05:22:27.245Z,72.12
2019-03-02T05:24:57.124Z,72.36
2019-03-02T05:27:28.825Z,72.37
2019-03-02T05:30:02.602Z,72.32
2019-03-02T05:32:32.806Z,72.89
2019-03-02T05:35:06.115Z,73.32
2019-03-02T05:37:39.266Z,73.46
2019-03-02T05:40:08.273Z,73.88
2019-03-02T05:42:38.294Z,74.15
2019-03-02T05:45:08.551Z,74.57
2019-03-02T05:47:38.874Z,74.53
2019-03-02T05:50:09.155Z,74.81
2019-03-02T05:52:39.019Z,75.08
2019-03-02T05:55:09.871Z,74.99
2019-03-02T05:57:40.687Z,74.91
2019-03-02T06:00:12.865Z,74.94
2019-03-02T06:02:43.157Z,75.04
2019-03-02T06:05:13.654Z,75.23
2019-03-02T06:07:43.582Z,75.50
2019-03-02T06:10:13.965Z,75.74
2019-03-02T06:12:44.167Z,75.99
2019-03-02T06:15:14.790Z,76.12
2019-03-02T06:17:45.213Z,76.28
2019-03-02T06:20:16.465Z,76.41
2019-03-02T06:22:46.946Z,76.43
2019-03-02T06:25:20.882Z,76.41
2019-03-02T06:27:49.040Z,76.36
2019-03-02T06:30:19.977Z,76.31
2019-03-02T06:32:54.173Z,76.22
2019-03-02T06:35:24.554Z,76.30
2019-03-02T06:37:57.962Z,76.80
2019-03-02T06:40:28.005Z,77.19
2019-03-02T06:42:58.193Z,77.42
2019-03-02T06:45:28.508Z,77.40
2019-03-02T06:47:58.424Z,77.30
2019-03-02T06:50:31.809Z,77.24
2019-03-02T06:53:01.483Z,77.04
2019-03-02T06:55:31.995Z,77.10
2019-03-02T06:58:03.017Z,76.96
2019-03-02T07:00:32.836Z,76.58
2019-03-02T07:03:06.763Z,76.60
2019-03-02T07:05:37.205Z,76.40
2019-03-02T07:08:07.379Z,76.07
2019-03-02T07:10:37.459Z,76.14
2019-03-02T07:13:08.584Z,75.82
2019-03-02T07:15:40.494Z,75.73
2019-03-02T07:18:16.773Z,75.35
2019-03-02T07:20:46.659Z,75.36
2019-03-02T07:23:17.225Z,75.35
2019-03-02T07:25:47.390Z,75.13
2019-03-02T07:28:17.515Z,74.78
2019-03-02T07:30:47.632Z,74.37
2019-03-02T07:33:17.986Z,74.41
2019-03-02T07:35:48.045Z,73.96
2019-03-02T07:38:20.379Z,73.57
2019-03-02T07:40:52.763Z,73.00
2019-03-02T07:43:24.082Z,72.93
2019-03-02T07:45:57.638Z,72.89
2019-03-02T07:48:29.168Z,72.75
2019-03-02T07:51:00.991Z,72.97
2019-03-02T07:53:31.749Z,73.09
2019-03-02T07:56:02.401Z,72.88
2019-03-02T07:58:32.938Z,72.77
2019-03-02T08:01:02.054Z,73.25
2019-03-02T08:03:34.389Z,72.99
2019-03-02T08:06:04.746Z,72.83
2019-03-02T08:08:34.847Z,72.79
2019-03-02T08:11:06.654Z,72.72
2019-03-02T08:13:37.756Z,72.77
2019-03-02T08:16:09.932Z,71.97
2019-03-02T08:18:40.141Z,71.59
2019-03-02T08:21:10.762Z,71.09
2019-03-02T08:23:41.044Z,70.28
2019-03-02T08:26:11.168Z,69.75
2019-03-02T08:28:42.111Z,70.36
2019-03-02T08:31:13.378Z,70.21
2019-03-02T08:33:46.164Z,69.37
2019-03-02T08:36:18.193Z,68.26
2019-03-02T08:38:48.220Z,68.26
2019-03-02T08:41:18.271Z,67.42
2019-03-02T08:43:48.624Z,67.42
2019-03-02T08:46:20.246Z,67.42
2019-03-02T08:48:50.710Z,67.32
2019-03-02T08:51:20.830Z,67.04
2019-03-02T08:53:51.684Z,66.71
2019-03-02T08:56:22.234Z,66.71
2019-03-02T08:58:57.991Z,66.47
2019-03-02T09:01:27.793Z,65.92
2019-03-02T09:03:59.951Z,66.13
2019-03-02T09:06:34.775Z,65.60
2019-03-02T09:09:06.906Z,65.43
2019-03-02T09:11:40.860Z,65.43
2019-03-02T09:14:13.558Z,64.69
2019-03-02T09:16:47.111Z,64.47
2019-03-02T09:19:20.896Z,64.44
2019-03-02T09:21:55.924Z,63.88
2019-03-02T09:24:28.044Z,63.67
2019-03-02T09:27:01.276Z,64.21
2019-03-02T09:29:32.936Z,64.45
2019-03-02T09:32:04.258Z,65.00
2019-03-02T09:34:37.060Z,65.11
2019-03-02T09:37:08.039Z,65.02
2019-03-02T09:39:38.563Z,64.75
2019-03-02T09:42:09.663Z,64.49
2019-03-02T09:44:40.962Z,64.43
2019-03-02T09:47:12.765Z,64.55
2019-03-02T09:49:44.553Z,64.79
2019-03-02T09:52:15.114Z,64.96
2019-03-02T09:54:44.240Z,64.19
2019-03-02T09:57:15.029Z,64.04
2019-03-02T09:59:46.503Z,63.97
2019-03-02T10:02:21.311Z,63.79
2019-03-02T10:04:54.115Z,63.99
2019-03-02T10:07:27.281Z,64.25
2019-03-02T10:09:58.987Z,63.97
2019-03-02T10:12:29.657Z,64.13
2019-03-02T10:15:02.305Z,64.20
2019-03-02T10:17:38.444Z,65.12
2019-03-02T10:20:10.709Z,64.85
2019-03-02T10:22:43.711Z,64.71
2019-03-02T10:25:19.881Z,64.65
2019-03-02T10:27:50.155Z,64.96
2019-03-02T10:30:21.942Z,64.58
2019-03-02T10:32:55.745Z,64.43
2019-03-02T10:35:25.432Z,64.41
2019-03-02T10:37:56.460Z,63.94
2019-03-02T10:40:28.330Z,63.28
2019-03-02T10:43:00.204Z,63.01
2019-03-02T10:45:33.762Z,62.54
2019-03-02T10:48:04.341Z,62.76
2019-03-02T10:50:34.782Z,62.21
2019-03-02T10:53:07.498Z,62.44
2019-03-02T10:55:38.034Z,62.83
2019-03-02T10:58:10.310Z,62.97
2019-03-02T11:00:41.675Z,62.29
2019-03-02T11:03:13.879Z,62.53
2019-03-02T11:06:04.417Z,63.51
2019-03-02T11:08:57.662Z,63.07
2019-03-02T11:11:43.711Z,61.97
2019-03-02T11:14:23.937Z,61.58
2019-03-02T11:17:12.038Z,61.54
2019-03-02T11:20:08.021Z,62.36
2019-03-02T11:23:05.456Z,62.25
2019-03-02T11:25:47.529Z,61.19
2019-03-02T11:28:32.555Z,61.33
2019-03-02T11:31:10.772Z,60.74
2019-03-02T11:34:12.491Z,59.46
2019-03-02T11:37:00.498Z,58.95
2019-03-02T11:39:50.003Z,59.01
2019-03-02T11:42:31.305Z,58.62
2019-03-02T11:45:07.212Z,59.41
2019-03-02T11:47:48.086Z,60.19
2019-03-02T11:50:46.964Z,60.69
2019-03-02T11:53:24.085Z,60.27
2019-03-02T11:56:27.940Z,60.20
2019-03-02T11:59:20.509Z,59.82
2019-03-02T12:02:19.728Z,60.90
2019-03-02T12:05:06.219Z,61.96
2019-03-02T12:07:56.332Z,61.58
2019-03-02T12:10:38.507Z,61.64
2019-03-02T12:13:36.866Z,62.38
2019-03-02T12:16:33.274Z,62.27
2019-03-02T12:19:30.540Z,62.42
2019-03-02T12:22:35.652Z,62.46
2019-03-02T12:25:35.199Z,62.47
2019-03-02T12:28:23.616Z,62.08
2019-03-02T12:31:13.371Z,62.22
2019-03-02T12:34:03.332Z,62.15
2019-03-02T12:36:49.088Z,62.57
2019-03-02T12:39:37.496Z,62.25
2019-03-02T12:42:31.557Z,63.10
2019-03-02T12:45:21.750Z,63.26
2019-03-02T12:48:21.286Z,61.81
2019-03-02T12:51:02.743Z,62.03
2019-03-02T12:54:07.659Z,62.29
2019-03-02T12:57:08.701Z,61.41
2019-03-02T13:00:03.341Z,60.88
2019-03-02T13:03:06.041Z,60.50
2019-03-02T13:06:06.263Z,61.33
2019-03-02T13:08:59.166Z,60.47
2019-03-02T13:11:57.139Z,60.01
2019-03-02T13:14:44.710Z,60.16
2019-03-02T13:17:38.548Z,61.33
2019-03-02T13:20:29.472Z,60.58
2019-03-02T13:23:06.717Z,60.91
2019-03-02T13:25:58.742Z,60.96
2019-03-02T13:28:37.055Z,60.94
2019-03-02T13:31:31.424Z,60.78
2019-03-02T13:34:20.096Z,60.04
2019-03-02T13:37:20.433Z,60.31
2019-03-02T13:40:17.185Z,60.05
2019-03-02T13:42:56.791Z,59.70
2019-03-02T13:45:46.081Z,59.93
2019-03-02T13:48:35.699Z,60.40
2019-03-02T13:51:30.174Z,60.64
2019-03-02T13:56:51.851Z,60.97
2019-03-02T13:59:30.995Z,62.24
2019-03-02T14:02:19.022Z,62.87
2019-03-02T14:05:20.469Z,62.49
2019-03-02T14:08:28.296Z,62.09
2019-03-02T14:11:19.281Z,62.17
2019-03-02T14:14:03.681Z,61.38
2019-03-02T14:17:01.867Z,61.35
2019-03-02T14:19:42.063Z,61.19
2019-03-02T14:22:26.987Z,61.26
2019-03-02T14:25:34.386Z,61.10
2019-03-02T14:28:13.356Z,60.56
2019-03-02T14:33:54.831Z,60.49
2019-03-02T14:36:44.520Z,60.57
2019-03-02T14:39:30.227Z,60.59
2019-03-02T14:42:28.238Z,60.31
2019-03-02T14:45:16.740Z,59.99
2019-03-02T14:48:13.657Z,59.82
2019-03-02T14:51:03.195Z,59.92
2019-03-02T14:53:51.867Z,59.74
2019-03-02T14:56:54.730Z,60.09
2019-03-02T14:59:55.263Z,59.97
2019-03-02T15:02:49.083Z,60.67
2019-03-02T15:05:37.818Z,61.02
2019-03-02T15:08:25.692Z,61.91
2019-03-02T15:11:15.130Z,62.26
2019-03-02T15:14:11.455Z,61.80
2019-03-02T15:16:53.938Z,61.52
2019-03-02T15:19:56.175Z,62.01
2019-03-02T15:22:47.773Z,63.05
2019-03-02T15:25:34.366Z,62.75
2019-03-02T15:28:29.244Z,62.83
2019-03-02T15:31:35.078Z,62.76
2019-03-02T15:34:21.962Z,62.69
2019-03-02T15:37:07.803Z,62.65
2019-03-02T15:40:05.138Z,62.61
2019-03-02T15:42:58.653Z,62.87
2019-03-02T15:45:38.266Z,62.49
2019-03-02T15:48:30.838Z,62.10
2019-03-02T15:51:39.719Z,61.89
2019-03-02T15:54:33.018Z,61.90
2019-03-02T15:57:21.568Z,61.84
2019-03-02T16:00:18.180Z,61.80
2019-03-02T16:02:59.051Z,62.13
2019-03-02T16:05:52.690Z,62.59
2019-03-02T16:08:48.890Z,62.38
2019-03-02T16:11:35.652Z,62.24
2019-03-02T16:14:20.806Z,62.27
2019-03-02T16:17:04.695Z,62.72
2019-03-02T16:19:41.406Z,62.65
2019-03-02T16:22:30.099Z,62.63
2019-03-02T16:25:09.540Z,62.62
2019-03-02T16:27:58.829Z,62.83
2019-03-02T16:30:39.235Z,63.19
2019-03-02T16:33:32.463Z,63.33
2019-03-02T16:36:18.731Z,63.62
2019-03-02T16:39:02.908Z,63.64
2019-03-02T16:41:56.775Z,63.82
2019-03-02T16:44:39.315Z,64.36
2019-03-02T16:47:31.063Z,64.72
2019-03-02T16:50:27.989Z,65.37
2019-03-02T16:53:16.052Z,65.27
2019-03-02T16:56:17.253Z,64.65
2019-03-02T16:59:38.171Z,64.43
2019-03-02T17:02:34.587Z,64.42
2019-03-02T17:09:18.089Z,64.58
2019-03-02T17:12:01.395Z,64.56
2019-03-02T17:14:57.317Z,64.40
2019-03-02T17:17:56.072Z,64.13
2019-03-02T17:20:39.127Z,64.34
2019-03-02T17:23:42.627Z,64.54
2019-03-02T17:26:37.030Z,64.42
2019-03-02T17:29:24.610Z,64.25
2019-03-02T17:32:17.861Z,64.24
2019-03-02T17:35:07.601Z,64.39
2019-03-02T17:38:02.633Z,64.29
2019-03-02T17:41:07.478Z,64.11
2019-03-02T17:43:57.225Z,64.06
2019-03-02T17:46:47.061Z,63.94
2019-03-02T17:49:28.794Z,63.75
2019-03-02T17:52:23.274Z,63.65
2019-03-02T17:55:04.999Z,63.84
2019-03-02T17:57:50.301Z,63.79
2019-03-02T18:00:48.916Z,63.97
2019-03-02T18:03:56.000Z,64.27
2019-03-02T18:06:42.711Z,64.42
2019-03-02T18:09:41.634Z,64.35
2019-03-02T18:12:30.424Z,64.23
2019-03-02T18:15:36.510Z,64.79
2019-03-02T18:18:17.493Z,65.59
2019-03-02T18:21:23.540Z,65.59
2019-03-02T18:25:17.596Z,65.33
2019-03-02T18:31:25.989Z,65.88
2019-03-02T18:34:11.928Z,65.69
2019-03-02T18:36:45.946Z,65.74
2019-03-02T18:39:46.319Z,65.74
2019-03-02T18:46:30.456Z,65.83
2019-03-02T18:49:15.347Z,65.83
2019-03-02T18:52:13.091Z,65.66
2019-03-02T18:54:45.136Z,65.78
2019-03-02T18:57:15.940Z,65.46
2019-03-02T18:59:47.557Z,65.45
2019-03-02T19:02:18.275Z,65.42
2019-03-02T19:04:49.868Z,65.37
2019-03-02T19:07:20.845Z,65.42
2019-03-02T19:09:51.650Z,65.46
2019-03-02T19:12:22.104Z,65.45
2019-03-02T19:14:53.784Z,65.34
2019-03-02T19:17:25.392Z,65.06
2019-03-02T19:19:55.593Z,64.83
2019-03-02T19:22:25.994Z,65.05
2019-03-02T19:24:56.175Z,65.10
2019-03-02T19:27:26.561Z,65.21
2019-03-02T19:29:56.884Z,65.14
2019-03-02T19:32:27.192Z,64.89
2019-03-02T19:34:59.449Z,64.90
2019-03-02T19:37:29.844Z,64.90
2019-03-02T19:40:00.352Z,65.31
2019-03-02T19:42:32.160Z,65.44
2019-03-02T19:45:10.288Z,65.42
2019-03-02T19:47:45.702Z,65.28
2019-03-02T19:50:18.708Z,65.43
2019-03-02T19:52:49.774Z,65.55
2019-03-02T19:55:20.333Z,65.69
2019-03-02T19:57:50.620Z,65.95
2019-03-02T20:00:26.629Z,66.06
2019-03-02T20:02:57.254Z,66.21
2019-03-02T20:05:28.613Z,66.63
2019-03-02T20:07:59.260Z,67.12
2019-03-02T20:10:30.054Z,67.35
2019-03-02T20:13:00.210Z,67.35
2019-03-02T20:15:31.102Z,67.40
2019-03-02T20:18:01.478Z,67.42
2019-03-02T20:20:49.187Z,67.65
2019-03-02T20:23:20.051Z,67.85
2019-03-02T20:25:51.004Z,67.95
2019-03-02T20:28:20.942Z,68.03
2019-03-02T20:30:51.490Z,68.22
2019-03-02T20:33:29.571Z,68.33
2019-03-02T20:35:59.570Z,68.35
2019-03-02T20:38:31.345Z,68.38
2019-03-02T20:41:03.190Z,68.83
2019-03-02T20:43:34.590Z,68.97
2019-03-02T20:46:06.696Z,68.79
2019-03-02T20:48:36.693Z,68.75
2019-03-02T20:51:07.035Z,68.76
2019-03-02T20:53:37.660Z,68.83
2019-03-02T20:56:08.028Z,69.21
2019-03-02T20:58:39.359Z,69.15
2019-03-02T21:01:10.323Z,69.23
2019-03-02T21:03:40.716Z,69.22
2019-03-02T21:06:11.105Z,69.09
2019-03-02T21:12:12.939Z,68.81
2019-03-02T21:14:42.881Z,69.31
2019-03-02T21:17:13.183Z,69.37
2019-03-02T21:19:43.923Z,69.43
2019-03-02T21:22:17.751Z,69.20
2019-03-02T21:24:48.433Z,68.87
2019-03-02T21:27:19.071Z,68.92
2019-03-02T21:29:49.991Z,69.01
2019-03-02T21:32:21.056Z,68.94
2019-03-02T21:34:51.556Z,68.78
2019-03-02T21:37:21.754Z,68.48
2019-03-02T21:39:54.118Z,68.34
2019-03-02T21:42:24.339Z,68.20
2019-03-02T21:46:01.954Z,68.42
2019-03-02T21:52:24.190Z,68.30
2019-03-02T21:54:57.954Z,68.02
2019-03-02T21:57:28.518Z,68.14
2019-03-02T21:59:58.578Z,68.04
2019-03-02T22:05:42.945Z,67.86
2019-03-02T22:08:24.467Z,67.91
2019-03-02T22:11:32.776Z,67.94
2019-03-02T22:14:17.440Z,68.32
2019-03-02T22:20:59.094Z,67.92
2019-03-02T22:26:47.027Z,68.28
2019-03-02T22:32:28.594Z,68.91
2019-03-02T22:34:59.345Z,68.79
2019-03-02T22:44:44.819Z,69.00
2019-03-02T22:47:22.114Z,69.20
2019-03-02T22:50:28.762Z,69.40
2019-03-02T22:53:11.621Z,69.56
2019-03-02T22:56:25.258Z,70.12
2019-03-02T22:59:16.194Z,70.06
2019-03-02T23:02:26.024Z,70.30
2019-03-02T23:05:29.100Z,71.01
2019-03-02T23:08:00.507Z,70.95
2019-03-02T23:10:31.193Z,71.14
2019-03-02T23:13:02.620Z,71.16
2019-03-02T23:15:33.011Z,71.59
2019-03-02T23:18:04.965Z,71.16
2019-03-02T23:20:35.161Z,70.93
2019-03-02T23:23:05.774Z,70.88
2019-03-02T23:25:36.162Z,70.78
2019-03-02T23:28:06.757Z,70.58
2019-03-02T23:30:37.587Z,70.87
2019-03-02T23:33:08.071Z,70.64
2019-03-02T23:35:40.555Z,70.37
2019-03-02T23:38:11.018Z,70.03
2019-03-02T23:40:41.700Z,69.75
2019-03-02T23:43:12.578Z,69.79
2019-03-02T23:45:43.599Z,70.25
2019-03-02T23:48:14.003Z,70.94
2019-03-02T23:50:44.768Z,70.94
2019-03-02T23:53:15.196Z,70.77
2019-03-02T23:55:45.751Z,70.43
2019-03-02T23:58:17.958Z,70.04
